Time;durP1;ratioP1;P1;durP2;ratioP2;P2;SDS_P1;SDS_P2;PMS_P1;PMS_P2;Temp;Humidity;BMP_temperature;BMP_pressure;BME280_temperature;BME280_humidity;BME280_pressure;Samples;Min_cycle;Max_cycle;Signal;HPM_P1;HPM_P2
2022/03/07 00:05:59;;;;;;;16.63;12.38;;;-0.20;99.90;;;;;;1285948;26;20647;-88
2022/03/07 00:09:17;;;;;;;22.00;12.48;;;-0.60;99.90;;;;;;5014748;28;20813;-86
2022/03/07 00:12:31;;;;;;;13.82;12.50;;;2.20;99.90;;;;;;5042982;28;20211;-88
2022/03/07 00:15:49;;;;;;;11.52;10.40;;;-0.10;99.90;;;;;;5012146;28;20701;-87
2022/03/07 00:19:10;;;;;;;11.85;9.50;;;2.40;99.90;;;;;;4963993;29;20190;-87
2022/03/07 00:22:50;;;;;;;;;;;;;;;;;;;;;
2022/03/07 00:33:34;;;;;;;12.90;11.55;;;2.60;99.90;;;;;;4902292;29;20223;-87
2022/03/07 00:40:30;;;;;;;12.52;11.00;;;2.40;99.90;;;;;;4951630;28;20234;-87
2022/03/07 00:55:24;;;;;;;11.80;10.55;;;-0.20;99.90;;;;;;4990368;28;20222;-87
2022/03/07 01:01:33;;;;;;;13.63;11.88;;;0.60;99.90;;;;;;4981122;28;20206;-86
2022/03/07 01:14:20;;;;;;;13.93;12.52;;;1.50;99.90;;;;;;4985680;28;20216;-87
2022/03/07 01:16:59;;;;;;;13.05;9.90;;;3.80;99.90;;;;;;4977944;28;20262;-86
2022/03/07 01:19:36;;;;;;;12.60;10.65;;;0.90;99.90;;;;;;4984436;28;20257;-86
2022/03/07 01:37:21;;;;;;;11.65;10.55;;;3.10;99.90;;;;;;4970777;28;20259;-86
2022/03/07 01:47:36;;;;;;;;;;;;;;;;;;;;;
2022/03/07 01:50:28;;;;;;;15.73;13.10;;;-0.50;99.90;;;;;;4885071;29;20236;-84
2022/03/07 01:56:07;;;;;;;;;;;;;;;;;;;;;
2022/03/07 01:59:11;;;;;;;14.98;11.30;;;3.20;99.90;;;;;;4949918;29;20270;-86
2022/03/07 02:02:32;;;;;;;;;;;;;;;;;;;;;
2022/03/07 02:05:27;;;;;;;14.45;11.57;;;1.90;99.90;;;;;;4927896;29;20247;-87
2022/03/07 02:15:23;;;;;;;16.48;12.90;;;-0.30;99.90;;;;;;4894043;29;20204;-87
2022/03/07 02:18:31;;;;;;;;;;;;;;;;;;;;;
2022/03/07 02:28:18;;;;;;;15.15;12.45;;;2.10;99.90;;;;;;4899657;29;20224;-86
2022/03/07 02:35:06;;;;;;;14.48;12.98;;;-0.20;99.90;;;;;;4888780;29;20712;-87
2022/03/07 02:44:07;;;;;;;16.88;12.52;;;0.00;99.90;;;;;;5021861;28;20197;-85
2022/03/07 02:54:00;;;;;;;;;;;;;;;;;;;;;
2022/03/07 03:00:16;;;;;;;;;;;;;;;;;;;;;
2022/03/07 03:03:28;;;;;;;24.10;15.65;;;2.20;99.90;;;;;;5004199;28;20239;-86
2022/03/07 03:14:02;;;;;;;;;;;;;;;;;;;;;
2022/03/07 03:16:44;;;;;;;21.27;15.05;;;0.90;99.90;;;;;;4965549;28;20220;-85
2022/03/07 03:23:08;;;;;;;22.40;13.98;;;0.70;99.90;;;;;;5011030;28;20173;-85
2022/03/07 03:26:19;;;;;;;;;;;;;;;;;;;;;
2022/03/07 03:32:49;;;;;;;;;;;;;;;;;;;;;
2022/03/07 03:44:10;;;;;;;15.95;13.95;;;0.70;99.90;;;;;;2568462;23;20227;-86
2022/03/07 03:47:23;;;;;;;23.83;16.48;;;0.40;99.90;;;;;;5033862;28;20685;-87
2022/03/07 03:49:56;;;;;;;18.17;14.45;;;3.10;99.90;;;;;;4993556;28;20189;-86
2022/03/07 03:52:44;;;;;;;14.45;12.60;;;0.00;99.90;;;;;;5009215;28;20209;-87
2022/03/07 03:56:07;;;;;;;18.27;14.98;;;0.70;99.90;;;;;;5017816;28;20729;-88
2022/03/07 03:58:51;;;;;;;18.00;14.55;;;1.60;99.90;;;;;;5012125;28;20172;-86
2022/03/07 04:02:47;;;;;;;19.80;14.20;;;1.10;99.90;;;;;;5025216;28;20185;-87
2022/03/07 04:06:04;;;;;;;19.02;15.15;;;0.40;99.90;;;;;;4987665;28;20188;-87
2022/03/07 04:08:37;;;;;;;18.70;13.82;;;3.20;99.90;;;;;;4974446;28;20419;-86
2022/03/07 04:12:08;;;;;;;17.13;13.25;;;3.00;99.90;;;;;;4994255;28;20217;-86
2022/03/07 04:18:11;;;;;;;19.13;14.90;;;0.80;99.90;;;;;;4955067;29;20198;-85
2022/03/07 04:21:30;;;;;;;;;;;;;;;;;;;;;
2022/03/07 04:24:10;;;;;;;18.65;13.70;;;3.30;99.90;;;;;;4954352;29;20200;-86
2022/03/07 04:30:12;;;;;;;18.77;14.55;;;0.50;99.90;;;;;;5019580;28;20206;-86
2022/03/07 04:32:41;;;;;;;16.67;14.77;;;2.30;99.90;;;;;;5008593;28;20221;-84
2022/03/07 04:35:11;;;;;;;15.82;13.90;;;0.90;99.90;;;;;;5111538;23;20231;-84
2022/03/07 04:38:00;;;;;;;;;;;;;;;;;;;;;
2022/03/07 04:40:28;;;;;;;21.88;15.77;;;1.70;99.90;;;;;;5013676;28;20190;-86
2022/03/07 04:43:07;;;;;;;;;;;;;;;;;;;;;
2022/03/07 04:45:39;;;;;;;17.42;12.27;;;0.90;99.90;;;;;;5031474;28;20189;-86
2022/03/07 04:48:38;;;;;;;16.88;13.65;;;-0.70;99.90;;;;;;5007530;28;20173;-86
2022/03/07 04:51:04;;;;;;;13.85;11.32;;;0.50;99.90;;;;;;5008424;28;20230;-86
2022/03/07 04:53:43;;;;;;;16.57;12.00;;;1.90;99.90;;;;;;5031452;28;20196;-86
2022/03/07 04:56:37;;;;;;;;;;;;;;;;;;;;;
2022/03/07 04:59:33;;;;;;;16.38;11.82;;;1.90;99.90;;;;;;5032383;28;20203;-87
2022/03/07 05:02:03;;;;;;;15.40;12.77;;;0.00;99.90;;;;;;5028436;28;20203;-86
2022/03/07 05:04:40;;;;;;;16.65;12.80;;;0.70;99.90;;;;;;5033792;28;20192;-86
2022/03/07 05:07:29;;;;;;;19.38;14.02;;;0.40;99.90;;;;;;5032020;28;20177;-85
2022/03/07 05:10:00;;;;;;;14.65;12.57;;;0.90;99.90;;;;;;5018985;28;20184;-86
2022/03/07 05:12:52;;;;;;;14.70;13.20;;;0.60;99.90;;;;;;5017997;28;20215;-86
2022/03/07 05:15:26;;;;;;;20.90;13.85;;;0.20;99.90;;;;;;5012818;28;20211;-86
2022/03/07 05:17:58;;;;;;;15.20;12.73;;;1.90;99.90;;;;;;5049301;28;20199;-85
2022/03/07 05:21:05;;;;;;;17.40;14.82;;;-0.10;99.90;;;;;;5029713;28;20183;-86
2022/03/07 05:23:41;;;;;;;15.90;12.63;;;0.60;99.90;;;;;;5015884;28;20180;-85
2022/03/07 05:26:09;;;;;;;26.92;15.00;;;-0.10;99.90;;;;;;5025765;28;20184;-84
2022/03/07 05:28:40;;;;;;;15.65;14.05;;;-1.50;99.90;;;;;;5032337;28;20262;-87
2022/03/07 05:31:12;;;;;;;15.38;12.90;;;0.70;99.90;;;;;;5043129;28;20203;-87
2022/03/07 05:33:41;;;;;;;18.50;15.02;;;2.40;99.90;;;;;;5033337;28;20198;-85
2022/03/07 05:36:15;;;;;;;16.90;15.07;;;2.30;99.90;;;;;;5032610;28;20206;-86
2022/03/07 05:39:02;;;;;;;19.25;14.85;;;0.10;99.90;;;;;;5033401;28;20270;-86
2022/03/07 05:41:30;;;;;;;20.45;15.57;;;1.30;99.90;;;;;;5032727;28;20214;-84
2022/03/07 05:44:06;;;;;;;17.45;12.88;;;1.00;99.90;;;;;;5052337;28;20184;-84
2022/03/07 05:46:35;;;;;;;18.08;14.23;;;-0.50;99.90;;;;;;5022544;28;20170;-85
2022/03/07 05:49:03;;;;;;;16.40;13.45;;;-0.20;99.90;;;;;;5047536;28;20181;-84
2022/03/07 05:51:43;;;;;;;16.25;13.05;;;4.70;99.90;;;;;;5029566;28;20180;-86
2022/03/07 05:54:34;;;;;;;19.08;13.68;;;2.60;99.90;;;;;;5039293;28;20297;-86
2022/03/07 05:57:32;;;;;;;13.90;12.40;;;-1.30;99.90;;;;;;5033821;28;20259;-86
2022/03/07 06:00:33;;;;;;;13.80;11.13;;;1.20;99.90;;;;;;5051677;28;20176;-85
2022/03/07 06:03:30;;;;;;;18.53;12.90;;;0.30;99.90;;;;;;5046430;28;20239;-86
2022/03/07 06:06:21;;;;;;;15.73;12.70;;;1.90;99.90;;;;;;5014425;28;20423;-85
2022/03/07 06:09:10;;;;;;;15.23;12.97;;;1.00;99.90;;;;;;5045969;28;20184;-87
2022/03/07 06:11:41;;;;;;;23.30;13.45;;;2.70;99.90;;;;;;5045400;28;20430;-87
2022/03/07 06:14:06;;;;;;;20.23;14.60;;;0.60;99.90;;;;;;4684209;28;10000377;-85
2022/03/07 06:16:33;;;;;;;18.13;13.33;;;;;;;;;;5032583;28;20178;-87
2022/03/07 06:19:17;;;;;;;18.08;13.40;;;0.30;99.90;;;;;;5047715;28;20200;-86
2022/03/07 06:21:46;;;;;;;14.05;12.40;;;1.20;99.90;;;;;;5011357;28;20180;-84
2022/03/07 06:24:30;;;;;;;15.90;12.95;;;1.30;99.90;;;;;;5034286;28;20176;-87
2022/03/07 06:27:12;;;;;;;23.60;14.90;;;4.30;99.90;;;;;;5025434;28;20175;-87
2022/03/07 06:30:01;;;;;;;17.50;15.07;;;-1.20;99.90;;;;;;5016951;28;20278;-84
2022/03/07 06:32:27;;;;;;;17.95;14.57;;;0.90;99.90;;;;;;4997510;28;20603;-86
2022/03/07 06:35:27;;;;;;;22.77;15.90;;;-1.30;99.90;;;;;;5045367;23;20431;-87
2022/03/07 06:38:19;;;;;;;15.65;12.30;;;-0.40;99.90;;;;;;5023622;28;20185;-86
2022/03/07 06:41:07;;;;;;;15.15;12.20;;;-0.10;99.90;;;;;;4991997;28;20176;-88
2022/03/07 06:43:52;;;;;;;15.27;12.45;;;0.10;99.90;;;;;;4995860;28;20176;-86
2022/03/07 06:50:11;;;;;;;15.30;13.70;;;2.30;99.90;;;;;;4977616;28;20198;-86
2022/03/07 06:53:13;;;;;;;17.70;12.10;;;2.10;99.90;;;;;;4996088;28;20216;-86
2022/03/07 06:55:58;;;;;;;;;;;;;;;;;;;;;
2022/03/07 06:58:56;;;;;;;;;;;;;;;;;;;;;
2022/03/07 07:01:57;;;;;;;17.00;13.88;;;2.50;99.90;;;;;;4991588;28;20194;-87
2022/03/07 07:04:55;;;;;;;15.32;13.50;;;1.80;99.90;;;;;;4982671;28;20184;-87
2022/03/07 07:08:02;;;;;;;14.43;12.93;;;3.50;99.90;;;;;;4990326;28;20213;-87
2022/03/07 07:11:22;;;;;;;14.07;12.67;;;5.30;99.90;;;;;;5033683;23;20240;-88
2022/03/07 07:14:48;;;;;;;14.98;13.32;;;3.30;99.90;;;;;;4970563;28;20646;-88
2022/03/07 07:18:23;;;;;;;18.83;12.80;;;4.90;99.90;;;;;;4971228;28;20681;-89
2022/03/07 07:21:46;;;;;;;20.13;14.10;;;6.90;99.90;;;;;;4621553;28;9999737;-90
2022/03/07 07:27:54;;;;;;;14.23;12.80;;;4.40;99.90;;;;;;4991801;23;20583;-84
2022/03/07 07:30:22;;;;;;;15.40;14.00;;;4.70;99.90;;;;;;4969586;28;20463;-82
2022/03/07 07:32:48;;;;;;;18.83;13.97;;;4.80;99.90;;;;;;4985186;28;20205;-83
2022/03/07 07:35:14;;;;;;;24.63;13.87;;;5.10;99.90;;;;;;4970873;28;20506;-81
2022/03/07 07:37:39;;;;;;;14.43;12.83;;;6.20;99.90;;;;;;4967055;28;20335;-83
2022/03/07 07:40:13;;;;;;;13.67;12.37;;;6.60;99.90;;;;;;4969872;28;20800;-82
2022/03/07 07:42:39;;;;;;;14.87;13.40;;;7.30;99.90;;;;;;4988510;28;20313;-82
2022/03/07 07:45:05;;;;;;;15.57;13.80;;;9.20;99.30;;;;;;4986709;28;20624;-83
2022/03/07 07:47:30;;;;;;;16.23;12.93;;;8.40;95.80;;;;;;4969550;28;20763;-83
2022/03/07 07:49:56;;;;;;;14.47;13.00;;;9.10;93.60;;;;;;4986521;28;20811;-84
2022/03/07 07:52:22;;;;;;;15.13;12.27;;;9.20;89.10;;;;;;4983804;28;20193;-83
2022/03/07 07:54:47;;;;;;;18.33;15.33;;;10.40;82.70;;;;;;4968487;28;20197;-83
2022/03/07 07:57:13;;;;;;;13.53;12.27;;;10.80;73.90;;;;;;4988714;28;20205;-84
2022/03/07 07:59:39;;;;;;;11.20;10.40;;;10.80;63.40;;;;;;4988343;28;20183;-82
2022/03/07 08:02:05;;;;;;;13.97;12.57;;;11.60;58.10;;;;;;4997737;28;20510;-83
2022/03/07 08:04:31;;;;;;;15.10;13.77;;;11.60;58.40;;;;;;4954750;28;20244;-82
2022/03/07 08:06:56;;;;;;;10.37;9.27;;;11.90;56.40;;;;;;4989972;28;20216;-84
2022/03/07 08:09:25;;;;;;;7.87;7.30;;;11.70;52.30;;;;;;4989281;28;20450;-84
2022/03/07 08:11:51;;;;;;;7.40;6.80;;;12.30;46.70;;;;;;4969858;28;20550;-85
2022/03/07 08:14:16;;;;;;;7.03;6.57;;;11.80;44.30;;;;;;4971891;28;20468;-84
2022/03/07 08:16:42;;;;;;;11.07;6.60;;;13.80;44.10;;;;;;4966771;28;20194;-84
2022/03/07 08:19:08;;;;;;;5.40;5.20;;;12.00;42.70;;;;;;4988164;28;20196;-83
2022/03/07 08:21:33;;;;;;;6.03;5.83;;;11.10;40.00;;;;;;4969001;28;20193;-84
2022/03/07 08:24:02;;;;;;;5.20;4.97;;;13.90;42.40;;;;;;4969652;28;20197;-83
2022/03/07 08:26:28;;;;;;;5.57;5.40;;;13.40;41.50;;;;;;4970924;28;20233;-83
2022/03/07 08:28:54;;;;;;;4.57;4.47;;;11.10;39.50;;;;;;4641444;28;10000726;-84
2022/03/07 08:31:19;;;;;;;5.93;5.53;;;11.40;39.30;;;;;;4986436;28;20219;-83
2022/03/07 08:33:45;;;;;;;5.13;4.50;;;10.50;39.30;;;;;;4994928;28;20208;-84
2022/03/07 08:36:11;;;;;;;5.50;5.03;;;11.20;40.10;;;;;;5006830;28;20160;-83
2022/03/07 08:38:39;;;;;;;4.10;4.10;;;11.50;39.50;;;;;;4999078;28;20196;-87
2022/03/07 08:41:16;;;;;;;4.37;4.10;;;12.90;37.60;;;;;;4991489;28;20158;-88
2022/03/07 08:44:10;;;;;;;4.57;4.30;;;14.20;36.50;;;;;;5058166;23;20485;-87
2022/03/07 08:46:38;;;;;;;4.80;4.70;;;14.60;37.10;;;;;;5022201;28;20540;-83
2022/03/07 08:49:04;;;;;;;5.17;4.77;;;14.60;40.10;;;;;;5016902;28;20527;-87
2022/03/07 08:51:37;;;;;;;5.17;4.97;;;15.50;39.70;;;;;;5019665;28;20458;-86
2022/03/07 08:54:03;;;;;;;4.77;4.57;;;12.60;34.70;;;;;;5019131;28;20212;-86
2022/03/07 08:56:28;;;;;;;5.43;4.80;;;13.50;35.40;;;;;;5020445;28;20426;-84
2022/03/07 08:58:56;;;;;;;3.93;3.83;;;13.40;37.70;;;;;;5018950;28;20515;-84
2022/03/07 09:01:34;;;;;;;5.00;4.70;;;13.40;38.40;;;;;;5000587;28;20274;-84
2022/03/07 09:04:00;;;;;;;4.93;4.63;;;13.30;35.30;;;;;;4999855;28;20507;-84
2022/03/07 09:06:26;;;;;;;4.80;4.70;;;12.90;35.10;;;;;;5002424;28;20408;-85
2022/03/07 09:08:54;;;;;;;4.10;4.00;;;12.90;37.60;;;;;;5003763;28;20285;-84
2022/03/07 09:11:22;;;;;;;4.03;3.97;;;13.20;38.20;;;;;;5020133;28;20211;-84
2022/03/07 09:13:50;;;;;;;4.13;3.90;;;14.70;35.90;;;;;;5017401;28;20622;-84
2022/03/07 09:16:16;;;;;;;4.30;4.20;;;12.20;34.30;;;;;;5017262;28;20416;-85
2022/03/07 09:18:45;;;;;;;4.07;3.93;;;14.00;33.10;;;;;;5015586;28;20498;-84
2022/03/07 09:21:13;;;;;;;3.83;3.83;;;13.80;34.70;;;;;;5011306;28;20510;-85
2022/03/07 09:23:39;;;;;;;4.10;4.00;;;13.60;35.20;;;;;;5009432;28;20517;-84
2022/03/07 09:26:11;;;;;;;4.90;4.77;;;14.60;35.60;;;;;;5005187;28;20431;-82
2022/03/07 09:28:37;;;;;;;4.47;4.27;;;13.10;33.10;;;;;;5000124;28;20209;-84
2022/03/07 09:31:09;;;;;;;4.43;4.33;;;14.10;33.10;;;;;;5007770;28;20412;-84
2022/03/07 09:33:40;;;;;;;4.50;4.40;;;16.30;33.80;;;;;;5017521;28;20470;-87
2022/03/07 09:36:15;;;;;;;8.40;7.90;;;14.50;34.90;;;;;;5018273;28;20419;-89
2022/03/07 09:39:01;;;;;;;4.60;4.50;;;15.00;35.30;;;;;;5014997;28;20963;-88
2022/03/07 09:41:27;;;;;;;5.23;4.80;;;14.60;31.70;;;;;;5017188;28;20568;-86
2022/03/07 09:43:53;;;;;;;4.50;4.40;;;15.70;32.50;;;;;;5030976;28;20482;-85
2022/03/07 09:46:19;;;;;;;5.17;4.97;;;16.20;31.10;;;;;;5019566;28;20355;-85
2022/03/07 09:48:44;;;;;;;5.10;4.90;;;16.00;31.00;;;;;;5024838;28;20806;-86
2022/03/07 09:51:11;;;;;;;5.03;4.80;;;15.60;30.70;;;;;;4689647;28;10000172;-85
2022/03/07 09:53:39;;;;;;;5.40;5.13;;;15.10;31.30;;;;;;5021587;28;20238;-85
2022/03/07 09:56:05;;;;;;;4.83;4.67;;;15.30;32.50;;;;;;5039523;28;20751;-85
2022/03/07 09:58:31;;;;;;;4.73;4.63;;;14.10;31.40;;;;;;5151084;23;20504;-78
2022/03/07 10:01:07;;;;;;;4.20;4.17;;;14.70;30.80;;;;;;4962329;28;20487;-78
2022/03/07 10:03:32;;;;;;;4.80;4.20;;;14.10;31.40;;;;;;4956456;28;20449;-78
2022/03/07 10:05:59;;;;;;;7.60;4.60;;;15.00;30.80;;;;;;4965724;28;20955;-76
2022/03/07 10:08:28;;;;;;;4.47;4.37;;;15.30;30.50;;;;;;4963662;28;20241;-81
2022/03/07 10:10:55;;;;;;;3.93;3.60;;;15.60;30.40;;;;;;4967576;28;20429;-81
2022/03/07 10:13:24;;;;;;;4.50;4.40;;;14.90;30.20;;;;;;5068694;23;20485;-86
2022/03/07 10:16:02;;;;;;;3.97;3.87;;;16.80;32.00;;;;;;4997093;28;20440;-83
2022/03/07 10:18:29;;;;;;;4.80;4.50;;;16.00;30.50;;;;;;4966486;28;20525;-84
2022/03/07 10:20:59;;;;;;;5.83;5.70;;;16.20;31.00;;;;;;4951448;28;20437;-83
2022/03/07 10:23:27;;;;;;;4.13;4.00;;;17.10;31.10;;;;;;4971116;28;20651;-84
2022/03/07 10:26:15;;;;;;;4.23;4.13;;;16.60;30.50;;;;;;4986723;28;20460;-86
2022/03/07 10:28:50;;;;;;;3.73;3.73;;;16.10;30.40;;;;;;4974894;28;20411;-86
2022/03/07 10:31:32;;;;;;;4.53;4.43;;;18.30;31.30;;;;;;4983760;28;20420;-89
2022/03/07 10:34:21;;;;;;;5.13;4.93;;;14.70;30.20;;;;;;4979600;28;20476;-89
2022/03/07 10:36:50;;;;;;;4.93;4.60;;;16.20;29.50;;;;;;4960847;29;20414;-88
2022/03/07 10:39:25;;;;;;;5.00;4.60;;;16.00;31.40;;;;;;5012031;28;20439;-84
2022/03/07 10:41:51;;;;;;;5.30;4.93;;;16.50;30.40;;;;;;4966308;28;20448;-87
2022/03/07 10:44:28;;;;;;;4.13;4.03;;;15.70;28.70;;;;;;4989809;28;20532;-87
2022/03/07 10:47:05;;;;;;;4.20;4.10;;;17.20;29.30;;;;;;4989495;28;20491;-84
2022/03/07 10:49:31;;;;;;;6.93;6.30;;;19.60;30.70;;;;;;4973191;28;20503;-86
2022/03/07 10:51:57;;;;;;;5.77;5.57;;;16.10;29.90;;;;;;4979340;28;20567;-85
2022/03/07 10:54:23;;;;;;;5.33;4.90;;;17.30;32.10;;;;;;4992260;28;20559;-85
2022/03/07 10:56:53;;;;;;;5.87;5.53;;;16.40;31.60;;;;;;4995838;28;20725;-85
2022/03/07 10:59:33;;;;;;;4.83;4.73;;;16.70;29.10;;;;;;4962054;28;20201;-85
2022/03/07 11:02:10;;;;;;;5.27;4.70;;;15.90;29.40;;;;;;4989363;28;20425;-84
2022/03/07 11:04:40;;;;;;;5.27;5.00;;;16.50;29.30;;;;;;4997732;28;20512;-82
2022/03/07 11:07:09;;;;;;;5.40;5.00;;;18.30;30.00;;;;;;5015168;28;20437;-86
2022/03/07 11:09:36;;;;;;;4.90;4.60;;;17.50;30.50;;;;;;4993925;28;20438;-86
2022/03/07 11:12:11;;;;;;;5.23;5.03;;;16.30;29.50;;;;;;4988228;28;20416;-86
2022/03/07 11:14:40;;;;;;;4.63;4.50;;;18.00;28.70;;;;;;4629864;28;10000073;-87
2022/03/07 11:17:17;;;;;;;6.63;4.53;;;18.00;29.20;;;;;;4964030;29;20673;-85
2022/03/07 11:19:46;;;;;;;4.80;4.60;;;17.80;28.40;;;;;;4964926;29;20465;-88
2022/03/07 11:22:35;;;;;;;4.67;4.37;;;17.90;28.90;;;;;;4970611;29;20718;-85
2022/03/07 11:25:05;;;;;;;4.90;4.70;;;18.00;29.50;;;;;;4943004;29;20442;-87
2022/03/07 11:27:32;;;;;;;4.43;4.27;;;17.60;29.40;;;;;;4960923;29;20418;-84
2022/03/07 11:29:58;;;;;;;4.70;4.50;;;17.70;28.80;;;;;;4960745;28;20434;-88
2022/03/07 11:32:24;;;;;;;4.47;4.37;;;18.10;29.70;;;;;;4960481;29;20426;-87
2022/03/07 11:35:02;;;;;;;4.17;4.07;;;17.80;28.80;;;;;;4974508;28;20917;-85
2022/03/07 11:37:35;;;;;;;4.43;4.30;;;15.90;27.90;;;;;;4959494;28;20435;-86
2022/03/07 11:40:18;;;;;;;4.23;4.13;;;15.90;29.70;;;;;;4970548;28;20571;-87
2022/03/07 11:42:43;;;;;;;4.43;4.23;;;17.40;30.00;;;;;;4947980;29;20465;-87
2022/03/07 11:45:16;;;;;;;4.33;4.03;;;16.30;29.30;;;;;;4974186;28;20721;-86
2022/03/07 11:47:47;;;;;;;4.70;4.40;;;16.40;29.20;;;;;;4958914;29;20682;-82
2022/03/07 11:50:15;;;;;;;4.97;4.80;;;17.10;29.20;;;;;;4978384;28;20430;-87
2022/03/07 11:52:41;;;;;;;5.40;5.20;;;17.30;29.20;;;;;;4979666;28;20495;-85
2022/03/07 11:55:21;;;;;;;5.07;4.90;;;17.70;30.00;;;;;;4963588;28;20453;-84
2022/03/07 11:58:08;;;;;;;10.33;5.00;;;18.10;29.10;;;;;;4957007;29;20422;-87
2022/03/07 12:00:36;;;;;;;5.13;4.63;;;18.10;28.50;;;;;;4958418;29;20435;-85
2022/03/07 12:03:18;;;;;;;4.93;4.57;;;17.80;28.50;;;;;;4971667;28;20890;-86
2022/03/07 12:06:01;;;;;;;3.90;3.80;;;17.90;28.30;;;;;;4969149;29;20801;-88
2022/03/07 12:08:26;;;;;;;8.90;8.00;;;18.50;28.00;;;;;;4979903;28;20437;-86
2022/03/07 12:11:02;;;;;;;4.43;4.23;;;17.80;28.00;;;;;;4974801;28;20956;-86
2022/03/07 12:13:53;;;;;;;4.97;4.77;;;18.50;27.90;;;;;;4983988;28;20249;-87
2022/03/07 12:16:28;;;;;;;4.17;3.97;;;18.20;27.90;;;;;;4955037;28;20410;-86
2022/03/07 12:19:19;;;;;;;5.00;4.80;;;18.50;28.00;;;;;;4971999;28;20428;-85
2022/03/07 12:22:22;;;;;;;4.87;4.67;;;17.50;29.30;;;;;;4973331;28;20409;-86
2022/03/07 12:25:04;;;;;;;3.90;3.90;;;18.50;28.70;;;;;;4972453;28;20963;-88
2022/03/07 12:28:17;;;;;;;3.80;3.70;;;20.10;27.20;;;;;;4990269;28;20437;-87
2022/03/07 12:30:42;;;;;;;4.50;4.40;;;20.30;27.10;;;;;;4972549;28;20441;-86
2022/03/07 12:33:14;;;;;;;4.10;4.00;;;18.90;27.80;;;;;;4976201;28;20489;-89
2022/03/07 12:36:13;;;;;;;3.97;3.90;;;18.20;28.10;;;;;;4999895;28;20189;-88
2022/03/07 12:38:49;;;;;;;4.70;4.33;;;18.80;28.10;;;;;;4976876;28;20444;-88
2022/03/07 12:41:21;;;;;;;4.80;4.60;;;18.50;27.90;;;;;;4981112;28;20412;-87
2022/03/07 12:43:52;;;;;;;5.43;4.87;;;17.50;27.20;;;;;;4962848;28;20417;-87
2022/03/07 12:46:18;;;;;;;4.40;4.20;;;17.00;28.50;;;;;;4982006;28;20432;-88
2022/03/07 12:48:45;;;;;;;6.27;5.40;;;18.60;30.90;;;;;;4975644;28;20437;-86
2022/03/07 12:51:16;;;;;;;4.40;4.00;;;16.50;28.30;;;;;;4979227;28;20484;-87
2022/03/07 12:53:54;;;;;;;4.47;4.37;;;17.70;28.40;;;;;;4978103;28;20500;-87
2022/03/07 12:56:39;;;;;;;5.70;5.43;;;17.90;27.70;;;;;;4994512;28;20429;-85
2022/03/07 12:59:05;;;;;;;11.23;4.37;;;18.10;28.40;;;;;;4978429;28;20425;-85
2022/03/07 13:01:34;;;;;;;5.40;5.10;;;18.00;28.60;;;;;;4973850;28;20872;-84
2022/03/07 13:04:00;;;;;;;4.60;4.30;;;18.80;29.30;;;;;;4975385;28;20448;-87
2022/03/07 13:06:34;;;;;;;8.00;4.87;;;18.50;29.80;;;;;;4973202;28;20441;-88
2022/03/07 13:09:00;;;;;;;5.50;4.13;;;17.70;28.50;;;;;;4970742;28;20655;-85
2022/03/07 13:11:38;;;;;;;4.33;3.77;;;18.60;29.00;;;;;;4971921;28;20730;-86
2022/03/07 13:14:25;;;;;;;4.37;4.17;;;18.30;28.40;;;;;;4976484;28;20501;-84
2022/03/07 13:16:52;;;;;;;3.40;3.40;;;17.40;27.60;;;;;;4974141;28;20421;-86
2022/03/07 13:19:21;;;;;;;4.60;4.40;;;17.40;27.70;;;;;;4982374;28;20444;-86
2022/03/07 13:21:49;;;;;;;4.00;3.90;;;19.00;28.20;;;;;;4971311;28;20429;-86
2022/03/07 13:24:22;;;;;;;5.23;4.90;;;18.50;27.80;;;;;;4972301;28;20932;-86
2022/03/07 13:27:03;;;;;;;4.20;4.10;;;19.00;27.80;;;;;;4977764;28;20453;-87
2022/03/07 13:29:30;;;;;;;6.67;4.90;;;19.70;28.70;;;;;;4976686;28;20464;-85
2022/03/07 13:32:03;;;;;;;4.90;4.70;;;16.90;27.70;;;;;;4976946;28;20467;-84
2022/03/07 13:35:01;;;;;;;5.73;5.43;;;18.10;28.80;;;;;;4638976;28;10000244;-88
2022/03/07 13:37:59;;;;;;;4.73;4.53;;;17.40;28.30;;;;;;4927506;28;20468;-88
2022/03/07 13:40:27;;;;;;;4.03;3.93;;;15.90;28.40;;;;;;4965771;28;20778;-87
2022/03/07 13:42:55;;;;;;;4.00;3.90;;;18.40;29.70;;;;;;4968798;28;20437;-87
2022/03/07 13:45:22;;;;;;;4.57;4.47;;;16.50;29.50;;;;;;4987291;28;20456;-87
2022/03/07 13:48:03;;;;;;;5.80;5.40;;;16.90;28.80;;;;;;4973558;28;20449;-86
2022/03/07 13:50:30;;;;;;;4.23;4.13;;;16.50;28.70;;;;;;4970867;28;20429;-88
2022/03/07 13:53:13;;;;;;;6.30;4.60;;;16.50;29.40;;;;;;4988249;28;20476;-86
2022/03/07 13:55:45;;;;;;;4.80;4.40;;;16.00;28.80;;;;;;4986476;28;20511;-87
2022/03/07 13:58:36;;;;;;;4.97;4.87;;;15.60;29.00;;;;;;4988473;28;20459;-85
2022/03/07 14:01:07;;;;;;;5.40;5.20;;;15.80;29.70;;;;;;4968949;28;20453;-87
2022/03/07 14:03:33;;;;;;;4.60;4.37;;;15.70;29.50;;;;;;4971579;28;20441;-85
2022/03/07 14:06:03;;;;;;;4.75;4.50;;;16.00;29.50;;;;;;4973645;28;20554;-87
2022/03/07 14:08:38;;;;;;;5.20;5.10;;;16.20;29.50;;;;;;4990931;28;20204;-87
2022/03/07 14:11:07;;;;;;;5.37;4.83;;;16.30;29.40;;;;;;5144187;23;20434;-87
2022/03/07 14:13:43;;;;;;;4.47;4.27;;;17.10;30.40;;;;;;5006140;28;20555;-84
2022/03/07 14:16:10;;;;;;;5.47;4.80;;;16.70;29.50;;;;;;5019895;28;20495;-90
2022/03/07 14:18:39;;;;;;;5.07;4.87;;;16.70;29.50;;;;;;5009721;28;20462;-88
2022/03/07 14:23:36;;;;;;;5.50;5.30;;;16.70;29.40;;;;;;4996102;28;20488;-88
2022/03/07 14:26:02;;;;;;;4.90;4.47;;;16.60;31.30;;;;;;4980899;28;20447;-91
2022/03/07 14:28:29;;;;;;;7.13;4.90;;;16.30;31.00;;;;;;4998566;28;20181;-88
2022/03/07 14:30:55;;;;;;;7.63;6.60;;;16.00;29.90;;;;;;4999382;28;20428;-90
2022/03/07 14:33:21;;;;;;;5.67;5.37;;;18.40;32.30;;;;;;4998819;28;20519;-90
2022/03/07 14:35:48;;;;;;;5.00;4.90;;;17.60;33.00;;;;;;4998075;28;20428;-90
2022/03/07 14:38:14;;;;;;;5.60;5.40;;;15.70;30.30;;;;;;5006928;28;20432;-86
2022/03/07 14:40:43;;;;;;;4.53;4.43;;;15.70;31.10;;;;;;5002588;28;20459;-90
2022/03/07 14:43:11;;;;;;;4.60;4.50;;;18.80;33.30;;;;;;5000131;28;20452;-90
2022/03/07 14:45:40;;;;;;;5.70;5.30;;;15.50;32.20;;;;;;5001536;28;21039;-89
2022/03/07 14:48:06;;;;;;;5.93;5.63;;;15.90;32.40;;;;;;4987622;28;20478;-89
2022/03/07 14:50:39;;;;;;;8.43;5.13;;;17.00;32.20;;;;;;5025240;28;20448;-88
2022/03/07 14:53:16;;;;;;;5.57;5.30;;;17.00;29.90;;;;;;4993228;28;20486;-86
2022/03/07 14:55:46;;;;;;;5.07;4.87;;;16.40;30.20;;;;;;4983316;28;20495;-89
2022/03/07 14:58:13;;;;;;;5.23;4.90;;;14.50;30.90;;;;;;4980104;28;20520;-89
2022/03/07 15:00:39;;;;;;;5.23;4.93;;;14.80;30.40;;;;;;4972244;28;20416;-89
2022/03/07 15:03:06;;;;;;;5.10;4.80;;;15.80;31.80;;;;;;4974878;28;20966;-90
2022/03/07 15:05:31;;;;;;;5.20;4.67;;;14.50;31.00;;;;;;4997452;28;20196;-88
2022/03/07 15:07:57;;;;;;;4.83;4.40;;;14.50;31.00;;;;;;4986448;28;21047;-88
2022/03/07 15:10:23;;;;;;;4.53;4.43;;;14.10;30.20;;;;;;4984357;28;20173;-89
2022/03/07 15:12:49;;;;;;;4.90;4.57;;;12.90;31.30;;;;;;4995479;28;20638;-91
2022/03/07 15:15:15;;;;;;;4.37;4.13;;;14.00;32.10;;;;;;5022543;28;20659;-89
2022/03/07 15:17:42;;;;;;;5.17;4.43;;;13.90;32.30;;;;;;5002733;28;20564;-88
2022/03/07 15:20:11;;;;;;;4.07;4.07;;;13.70;32.40;;;;;;5021450;28;20173;-86
2022/03/07 15:22:37;;;;;;;4.03;3.93;;;13.50;32.60;;;;;;4998142;28;20593;-86
2022/03/07 15:25:03;;;;;;;4.77;4.37;;;13.20;31.50;;;;;;4998974;28;20436;-88
2022/03/07 15:27:31;;;;;;;4.30;3.93;;;13.20;31.20;;;;;;4999682;28;20431;-89
2022/03/07 15:29:57;;;;;;;5.23;4.93;;;12.90;31.90;;;;;;5004491;28;20519;-89
2022/03/07 15:32:23;;;;;;;4.60;4.40;;;11.00;30.60;;;;;;4996992;28;20456;-87
2022/03/07 15:34:49;;;;;;;4.87;4.67;;;13.20;32.20;;;;;;4997276;28;20573;-90
2022/03/07 15:37:17;;;;;;;4.00;3.90;;;13.30;32.40;;;;;;4995718;28;20416;-90
2022/03/07 15:39:43;;;;;;;4.40;4.03;;;14.40;33.10;;;;;;4997158;28;20508;-86
2022/03/07 15:42:10;;;;;;;3.47;3.47;;;13.70;33.30;;;;;;4999660;28;20926;-89
2022/03/07 15:44:37;;;;;;;4.80;4.43;;;13.40;32.90;;;;;;5000535;28;20520;-88
2022/03/07 15:47:06;;;;;;;4.63;4.43;;;11.20;32.40;;;;;;5001726;28;20424;-88
2022/03/07 15:49:37;;;;;;;3.60;3.50;;;12.60;33.20;;;;;;5002908;28;20500;-90
2022/03/07 15:52:15;;;;;;;4.73;4.53;;;11.70;31.60;;;;;;5003709;28;20451;-88
2022/03/07 15:54:41;;;;;;;5.50;5.30;;;12.70;35.40;;;;;;5016479;28;20470;-89
2022/03/07 15:57:51;;;;;;;;;;;;;;;;;;;;;
2022/03/07 16:02:52;;;;;;;5.23;5.03;;;11.20;33.00;;;;;;4939485;26;20499;-89
2022/03/07 16:05:20;;;;;;;5.50;5.10;;;11.00;35.10;;;;;;4993049;28;20947;-87
2022/03/07 16:07:46;;;;;;;4.97;4.63;;;10.90;34.50;;;;;;4992895;28;20208;-88
2022/03/07 16:10:14;;;;;;;4.53;4.43;;;10.20;33.50;;;;;;4971578;28;20432;-87
2022/03/07 16:12:42;;;;;;;4.77;4.67;;;12.30;37.50;;;;;;5033852;23;20227;-81
2022/03/07 16:15:08;;;;;;;4.63;4.50;;;10.30;34.20;;;;;;5027850;28;20429;-82
2022/03/07 16:17:36;;;;;;;4.53;4.33;;;10.00;34.00;;;;;;5026609;28;20936;-81
2022/03/07 16:20:04;;;;;;;5.70;4.87;;;9.40;35.00;;;;;;5028843;28;20407;-81
2022/03/07 16:22:30;;;;;;;4.80;4.60;;;9.40;35.50;;;;;;4992473;28;20854;-82